This is the latest recevied weather packets stored in our database for station/object XE1E-15. If no packets are shown the sender has not sent any weather packets the latest 1 day(s).
| Time | Temp. | Humidity | Pressure | Rain* | Wind** | Luminosity | Snow |
|---|---|---|---|---|---|---|---|
| 1778053486 | 25° C | 43% | 1024.2 hPa | - | - | - | - |
| 1778052526 | 25° C | 43% | 1024.3 hPa | - | - | - | - |
| 1778051566 | 25° C | 43% | 1024.3 hPa | - | - | - | - |
| 1778045805 | 25.56° C | 43% | 1024.9 hPa | - | - | - | - |
| 1778044845 | 25.56° C | 42% | 1024.9 hPa | - | - | - | - |
| 1778043885 | 25.56° C | 42% | 1025 hPa | - | - | - | - |
| 1778042925 | 25.56° C | 43% | 1024.9 hPa | - | - | - | - |
| 1778041964 | 26.11° C | 42% | 1024.8 hPa | - | - | - | - |
| 1778041004 | 25.56° C | 43% | 1024.6 hPa | - | - | - | - |
| 1778040043 | 25° C | 43% | 1024.6 hPa | - | - | - | - |
| 1778039083 | 26.11° C | 42% | 1024.3 hPa | - | - | - | - |
| 1778038123 | 25.56° C | 41% | 1023.9 hPa | - | - | - | - |
| 1778037163 | 27.22° C | 39% | 1023.4 hPa | - | - | - | - |
| 1778035726 | 27.78° C | 38% | 1023.2 hPa | - | - | - | - |
| 1778034766 | 27.78° C | 38% | 1023 hPa | - | - | - | - |
| 1778033806 | 27.78° C | 38% | 1022.7 hPa | - | - | - | - |
| 1778032846 | 27.78° C | 38% | 1022.4 hPa | - | - | - | - |
| 1778031885 | 27.78° C | 38% | 1022 hPa | - | - | - | - |
| 1778029005 | 28.33° C | 37% | 1021.7 hPa | - | - | - | - |
| 1778028045 | 28.33° C | 35% | 1021.6 hPa | - | - | - | - |
| 1778027085 | 28.89° C | 34% | 1021.4 hPa | - | - | - | - |
| 1778026125 | 29.44° C | 33% | 1021.2 hPa | - | - | - | - |
| 1778023244 | 30.56° C | 32% | 1020.7 hPa | - | - | - | - |
| 1778017483 | 28.33° C | 35% | 1021.5 hPa | - | - | - | - |
* Rain since midnight (hover to see other rain measurements)
** Current wind speed in m/s (hover to see current wind gust speed)